• pl
  • eng

Awiacja
TAF FT 10:30 20.06.2019
  • WIND
  • SIGNIFICANT EURO
  • SIGNIFICANT
  • SIGMET
  • AIRMET
  • TAF FC
  • TAF FT
  • METAR GG30
  • METAR GG00


TAF EPBY 200530Z 2006/2106 VRB05KT CAVOK
TEMPO 2009/2022 VRB16G32KT 3000 TSRA BKN030CB=

TAF EPGD 200530Z 2006/2106 17006KT CAVOK
PROB40 TEMPO 2006/2009 3000 TSRA BKN030CB
TEMPO 2012/2019 VRB18G35KT 3000 TSRA BKN035CB
BECMG 2014/2016 28010KT
BECMG 2018/2020 VRB04KT=

TAF EPKK 200830Z 2009/2109 VRB02KT CAVOK
TEMPO 2012/2024 VRB15G25KT 4000 TSRA BKN040CB
BECMG 2100/2102 27010KT=

TAF EPKT 200530Z 2006/2106 20008KT CAVOK
TEMPO 2010/2018 SCT040CB
PROB30 TEMPO 2012/2018 VRB15G25KT 4000 TSRA=

TAF EPLL 200530Z 2006/2106 15005KT CAVOK
TEMPO 2010/2023 SCT040CB
PROB40 TEMPO 2013/2020 VRB15G32KT 3000 TSRA
PROB40 TEMPO 2101/2104 3500 BR BKN005=

TAF EPMO 200530Z 2006/2106 15005KT CAVOK
TEMPO 2012/2024 SCT040CB
PROB40 TEMPO 2014/2021 VRB15G32KT 3000 TSRA
PROB40 TEMPO 2101/2104 3500 BR BKN005=

TAF EPPO 200530Z 2006/2106 18007KT CAVOK
BECMG 2009/2012 27010KT
TEMPO 2012/2019 VRB25G45KT 2500 TSRA BKN030CB
PROB40 TEMPO 2019/2101 4000 TSRA BKN040CB
BECMG 2020/2023 33004KT
TEMPO 2101/2106 2000 BR=

TAF EPRZ 200530Z 2006/2106 20007KT CAVOK
TEMPO 2010/2019 VRB20G30KT TSRA BKN033CB
TEMPO 2023/2103 3000 BR=

TAF EPSC 200530Z 2006/2106 VRB04KT CAVOK
PROB40 TEMPO 2006/2009 3000 TSRA BKN030CB
TEMPO 2009/2019 VRB20G35KT 3000 TSRA BKN030CB=

TAF EPWA 200830Z 2009/2109 15005KT CAVOK
TEMPO 2012/2020 SCT035CB
PROB40 TEMPO 2014/2019 VRB15G30KT 3000 TSRA
PROB40 TEMPO 2100/2105 4000 BR BKN005=

TAF EPWR 200830Z 2009/2109 15005KT CAVOK
BECMG 2009/2012 29010KT
TEMPO 2009/2020 VRB25G45KT 2500 TSRA BKN035CB
PROB40 TEMPO 2020/2102 4000 TSRA BKN040CB=
Awiacja.imgw.pl jest pogodowym serwisem informacyjnym
Instytutu Meteorologii i Gospodarki Wodnej Państwowego Instytutu Badawczego.
Copyright IMGW PIB 2009-2011© Wszelkie prawa zastrzeżone.